createdAt,value
2023-03-24T00:01:16.887Z,98357.00009504794
2023-03-24T00:04:17.972Z,98359.48294201079
2023-03-24T00:07:16.753Z,98359.945760457
2023-03-24T00:11:18.723Z,98365.91025037918
2023-03-24T00:14:16.693Z,98356.14881601642
2023-03-24T00:17:17.664Z,98359.61610998827
2023-03-24T00:21:16.435Z,98357.55570418386
2023-03-24T00:24:16.814Z,98355.99004497653
2023-03-24T00:27:17.692Z,98351.21380893239
2023-03-24T00:31:17.476Z,98349.03182518388
2023-03-24T00:34:19.590Z,98344.84318967392
2023-03-24T00:37:16.885Z,98338.62251196266
2023-03-24T00:41:20.466Z,98343.43013668891
2023-03-24T00:44:18.292Z,98339.26330051325
2023-03-24T00:47:17.908Z,98335.38362298487
2023-03-24T00:51:16.462Z,98329.88779395931
2023-03-24T00:54:21.968Z,98327.30726027508
2023-03-24T00:57:21.805Z,98323.27335308252
2023-03-24T01:01:16.833Z,98328.57708249266
2023-03-24T01:04:16.620Z,98322.24157158607
2023-03-24T01:07:18.712Z,98322.59276091645
2023-03-24T01:11:16.722Z,98326.12160996142
2023-03-24T01:14:16.824Z,98323.06936089981
2023-03-24T01:17:16.657Z,98323.55192830764
2023-03-24T01:21:16.101Z,98321.75591336466
2023-03-24T01:24:16.948Z,98326.21717569216
2023-03-24T01:27:16.371Z,98326.20705727597
2023-03-24T01:31:16.209Z,98327.42372623914
2023-03-24T01:34:16.658Z,98329.06712713707
2023-03-24T01:37:16.859Z,98327.19369259782
2023-03-24T01:41:16.438Z,98323.58001000599
2023-03-24T01:44:27.711Z,98327.99565767942
2023-03-24T01:47:17.571Z,98328.08993567828
2023-03-24T01:51:20.170Z,98323.90514975296
2023-03-24T01:54:21.242Z,98325.89331803218
2023-03-24T01:57:20.978Z,98319.70232606817
2023-03-24T02:01:18.348Z,98320.35335379593
2023-03-24T02:04:16.481Z,98319.91466893435
2023-03-24T02:07:30.780Z,98321.83856513837
2023-03-24T02:11:16.099Z,98321.45185155183
2023-03-24T02:14:16.754Z,98320.36354883318
2023-03-24T02:17:31.898Z,98320.78479155096
2023-03-24T02:21:46.567Z,98323.26405467358
2023-03-24T02:24:53.224Z,98318.86829395485
2023-03-24T02:27:34.768Z,98323.95364084835
2023-03-24T02:31:33.019Z,98316.73348408313
2023-03-24T02:34:39.167Z,98315.88210260255
2023-03-24T02:38:23.807Z,98313.07518314777
2023-03-24T02:41:23.245Z,98314.12167357106
2023-03-24T02:44:22.427Z,98313.39827879443
2023-03-24T02:47:24.002Z,98316.65365710828
2023-03-24T02:51:22.650Z,98316.49271310687
2023-03-24T02:54:21.347Z,98317.10530402958
2023-03-24T02:57:23.299Z,98318.27761623308
2023-03-24T03:01:24.412Z,98325.98823273688
2023-03-24T03:04:19.888Z,98326.31711824429
2023-03-24T03:07:20.372Z,98323.15123465798
2023-03-24T03:11:16.983Z,98326.92846123944
2023-03-24T03:14:21.328Z,98326.3073192968
2023-03-24T03:17:19.216Z,98331.6524714888
2023-03-24T03:21:19.710Z,98327.66873548264
2023-03-24T03:24:19.881Z,98324.96749791827
2023-03-24T03:27:20.103Z,98317.8827452628
2023-03-24T03:31:21.839Z,98308.97147221175
2023-03-24T03:34:26.855Z,98315.05795293368
2023-03-24T03:37:24.806Z,98320.2735000331
2023-03-24T03:41:17.524Z,98320.03028826273
2023-03-24T03:44:16.489Z,98322.92300733893
2023-03-24T03:47:16.642Z,98324.14888422626
2023-03-24T03:51:16.703Z,98321.85517312733
2023-03-24T03:54:18.422Z,98327.46248763474
2023-03-24T03:57:18.158Z,98329.90845523441
2023-03-24T04:01:20.528Z,98330.27208464242
2023-03-24T04:05:03.174Z,98326.68742908268
2023-03-24T04:07:25.067Z,98325.7209112377
2023-03-24T04:11:40.888Z,98326.5296073902
2023-03-24T04:21:30.757Z,98329.99471562677
2023-03-24T04:24:28.783Z,98336.04222337271
2023-03-24T04:27:26.870Z,98333.99733877642
2023-03-24T04:31:25.381Z,98332.04827852636
2023-03-24T04:34:21.219Z,98331.32931804158
2023-03-24T04:37:22.290Z,98333.29407098956
2023-03-24T04:41:20.135Z,98335.69032574407
2023-03-24T04:44:17.939Z,98338.48515092602
2023-03-24T04:47:18.867Z,98339.32172180824
2023-03-24T04:51:18.651Z,98331.94248260793
2023-03-24T04:54:16.926Z,98337.53114159651
2023-03-24T04:57:16.621Z,98329.07636833143
2023-03-24T05:01:17.462Z,98338.28248538153
2023-03-24T05:04:18.660Z,98339.0651145786
2023-03-24T05:07:17.655Z,98335.289123206
2023-03-24T05:11:18.532Z,98338.13486383054
2023-03-24T05:14:17.070Z,98341.91115419261
2023-03-24T05:17:16.686Z,98342.24482060721
2023-03-24T05:21:16.327Z,98343.13556326235
2023-03-24T05:24:16.557Z,98344.53194043222
2023-03-24T05:27:16.672Z,98350.25867851985
2023-03-24T05:31:16.685Z,98347.74296934884
2023-03-24T05:34:16.655Z,98351.80924499303
2023-03-24T05:37:18.217Z,98357.21914158434
2023-03-24T05:41:16.690Z,98351.74456384956
2023-03-24T05:44:17.497Z,98356.14617392316
2023-03-24T05:47:17.770Z,98348.43122120712
2023-03-24T05:51:15.977Z,98362.878937291
2023-03-24T05:54:17.408Z,98363.86886674972
2023-03-24T05:57:16.997Z,98372.49015405815
2023-03-24T06:01:18.683Z,98380.62883137638
2023-03-24T06:04:16.827Z,98376.19238407334
2023-03-24T06:07:17.436Z,98373.46713689652
2023-03-24T06:11:16.432Z,98380.05983812404
2023-03-24T06:14:16.214Z,98386.47263814419
2023-03-24T06:17:16.185Z,98381.62919666909
2023-03-24T06:21:18.900Z,98391.28034534666
2023-03-24T06:24:16.679Z,98398.00534841299
2023-03-24T06:27:18.589Z,98402.15829069604
2023-03-24T06:31:19.149Z,98400.3451287965
2023-03-24T06:34:16.682Z,98402.73069868324
2023-03-24T06:37:16.822Z,98402.82662646112
2023-03-24T06:41:16.888Z,98401.37325129616
2023-03-24T07:01:16.772Z,98400.84788455005
2023-03-24T07:04:17.599Z,98399.55672699343
2023-03-24T07:07:44.864Z,98396.63178949917
2023-03-24T07:11:16.853Z,98402.5969233843
2023-03-24T07:14:16.596Z,98400.78061128472
2023-03-24T07:17:16.533Z,98403.8870071645
2023-03-24T07:21:17.065Z,98401.28818759607
2023-03-24T07:24:16.870Z,98406.41005496756
2023-03-24T07:27:16.845Z,98403.96780014338
2023-03-24T07:31:16.857Z,98400.3928755574
2023-03-24T07:34:16.845Z,98391.32610510707
2023-03-24T07:37:16.822Z,98393.16833218506
2023-03-24T07:41:16.316Z,98399.20496998471
2023-03-24T07:44:16.752Z,98395.71491872928
2023-03-24T07:47:16.640Z,98403.54144930375
2023-03-24T07:51:18.229Z,98415.41783275074
2023-03-24T07:54:17.272Z,98418.25088304451
2023-03-24T07:57:17.097Z,98420.47522562163
2023-03-24T08:11:16.836Z,98429.75548770376
2023-03-24T08:14:16.896Z,98429.25940318136
2023-03-24T08:17:17.021Z,98424.58720717796
2023-03-24T08:21:16.902Z,98416.83127558019
2023-03-24T08:24:17.706Z,98413.50987421969
2023-03-24T08:27:17.581Z,98409.77542267297
2023-03-24T08:31:15.690Z,98409.2119359647
2023-03-24T08:34:16.025Z,98410.32950833306
2023-03-24T08:37:16.061Z,98404.54294347287
2023-03-24T08:41:16.587Z,98407.07174261431
2023-03-24T08:44:16.257Z,98404.79343810164
2023-03-24T08:47:16.116Z,98407.83730121847
2023-03-24T08:51:17.062Z,98414.98308023528
2023-03-24T08:54:16.701Z,98413.80542468793
2023-03-24T08:57:17.443Z,98415.40730270377
2023-03-24T09:01:17.199Z,98419.09367072818
2023-03-24T09:04:16.856Z,98417.69109787287
2023-03-24T09:07:17.280Z,98415.01208019172
2023-03-24T09:11:18.075Z,98416.71715988031
2023-03-24T09:14:16.046Z,98413.46770141534
2023-03-24T09:17:16.801Z,98410.48426918588
2023-03-24T09:21:17.143Z,98412.87027279603
2023-03-24T09:24:17.328Z,98416.18718391628
2023-03-24T09:27:17.928Z,98411.73806642022
2023-03-24T09:31:16.707Z,98407.29592337526
2023-03-24T09:34:16.894Z,98407.80133780843
2023-03-24T09:37:16.851Z,98408.39402325467
2023-03-24T09:41:17.968Z,98407.27026669093
2023-03-24T09:44:25.996Z,98408.0456672709
2023-03-24T09:47:26.076Z,98408.3871863095
2023-03-24T09:51:21.632Z,98407.24791508167
2023-03-24T09:54:26.290Z,98405.82451023386
2023-03-24T09:57:21.072Z,98402.02163480048
2023-03-24T10:01:17.099Z,98393.35574560009
2023-03-24T10:04:19.477Z,98382.4753507797
2023-03-24T10:07:23.924Z,98383.63832639629
2023-03-24T10:11:24.823Z,98389.8282732916
2023-03-24T10:14:26.696Z,98382.42377208066
2023-03-24T10:17:28.233Z,98385.81448913539
2023-03-24T10:21:19.887Z,98382.80135805541
2023-03-24T10:24:23.712Z,98380.95016268513
2023-03-24T10:27:24.062Z,98384.18022265549
2023-03-24T10:31:19.211Z,98392.88803699042
2023-03-24T10:34:34.969Z,98389.32853958452
2023-03-24T10:37:16.599Z,98395.70619017132
2023-03-24T10:41:19.274Z,98405.63505902726
2023-03-24T10:44:17.726Z,98406.92691382994
2023-03-24T10:47:21.999Z,98413.13727988306
2023-03-24T10:51:19.269Z,98422.57039631953
2023-03-24T10:54:19.496Z,98416.15363962585
2023-03-24T10:57:18.068Z,98414.79309666672
2023-03-24T11:01:25.298Z,98424.53224731474
2023-03-24T11:04:19.699Z,98422.03188967443
2023-03-24T11:07:18.924Z,98432.66545967148
2023-03-24T11:11:30.159Z,98426.25978017757
2023-03-24T11:14:22.314Z,98427.77598706288
2023-03-24T11:17:21.228Z,98427.12473027724
2023-03-24T11:21:15.945Z,98423.94749010555
2023-03-24T11:24:18.649Z,98425.2988055044
2023-03-24T11:27:18.641Z,98426.93341689616
2023-03-24T11:31:23.205Z,98419.97026414935
2023-03-24T11:34:20.417Z,98407.71819708533
2023-03-24T11:37:18.637Z,98405.90566540704
2023-03-24T11:41:21.123Z,98404.2596135595
2023-03-24T11:44:20.787Z,98404.68392045841
2023-03-24T11:47:22.831Z,98401.73742738445
2023-03-24T11:51:26.204Z,98395.9008612101
2023-03-24T11:54:20.208Z,98400.43400482634
2023-03-24T11:57:25.848Z,98390.57095182229
2023-03-24T12:01:26.204Z,98377.65324054055
2023-03-24T12:04:28.391Z,98365.04215756821
2023-03-24T12:07:46.786Z,98366.75067940532
2023-03-24T12:11:23.034Z,98361.16156745615
2023-03-24T12:14:25.536Z,98345.87281547005
2023-03-24T12:17:21.264Z,98333.08644594025
2023-03-24T12:21:32.792Z,98315.85421405688
2023-03-24T12:24:32.127Z,98318.0629047786
2023-03-24T12:27:24.817Z,98314.02678311703
2023-03-24T12:31:39.091Z,98311.71253572228
2023-03-24T12:34:38.818Z,98312.28633478381
2023-03-24T12:37:30.173Z,98310.89698599048
2023-03-24T12:41:44.615Z,98304.99077863785
2023-03-24T12:45:19.103Z,98307.5872478973
2023-03-24T12:47:32.431Z,98297.46309064589
2023-03-24T12:51:25.272Z,98287.68266611325
2023-03-24T12:54:28.432Z,98288.13177359397
2023-03-24T12:57:17.634Z,98287.99728128278
2023-03-24T13:01:24.233Z,98289.322446313
2023-03-24T13:04:21.764Z,98275.57842584996
2023-03-24T13:07:22.532Z,98278.01695036968
2023-03-24T13:11:32.785Z,98277.6395227949
2023-03-24T13:14:21.840Z,98273.03638749177
2023-03-24T13:17:21.647Z,98265.36677989905
2023-03-24T13:21:23.104Z,98262.16597184185
2023-03-24T13:24:24.731Z,98254.97352712807
2023-03-24T13:27:25.833Z,98238.80208892474
2023-03-24T13:31:18.612Z,98246.3870279823
2023-03-24T13:34:25.461Z,98244.04806763509
2023-03-24T13:37:19.743Z,98238.00150590489
2023-03-24T13:41:18.929Z,98218.87983511882
2023-03-24T13:44:21.358Z,98213.45627976218
2023-03-24T13:47:17.616Z,98209.72951638346
2023-03-24T13:51:21.090Z,98207.01696610439
2023-03-24T13:54:19.842Z,98200.52407040044
2023-03-24T13:57:19.462Z,98208.00202144547
2023-03-24T14:01:32.478Z,98195.93246084015
2023-03-24T14:04:44.513Z,98196.89863288269
2023-03-24T14:07:31.538Z,98193.77369815168
2023-03-24T14:12:20.816Z,98187.78815596274
2023-03-24T14:14:19.729Z,98188.42872831099
2023-03-24T14:17:16.608Z,98189.34443043977
2023-03-24T14:21:28.686Z,98202.6438817855
2023-03-24T14:24:24.112Z,98192.38045229479
2023-03-24T14:27:35.141Z,98189.91653776444
2023-03-24T14:31:21.039Z,98196.80398677781
2023-03-24T14:34:21.766Z,98189.2497920798
2023-03-24T14:37:16.998Z,98192.22713169237
2023-03-24T14:41:26.926Z,98183.46913390243
2023-03-24T14:44:52.172Z,98182.70654373482
2023-03-24T14:47:19.275Z,98177.47956678318
2023-03-24T14:51:32.094Z,98171.5385891387
2023-03-24T14:54:22.792Z,98171.17814179682
2023-03-24T14:57:20.616Z,98164.91614084865
2023-03-24T15:01:17.461Z,98164.39259413668
2023-03-24T15:04:16.775Z,98175.41765870295
2023-03-24T15:07:16.952Z,98172.7303644379
2023-03-24T15:11:20.957Z,98165.12978307251
2023-03-24T15:14:22.491Z,98161.22602054018
2023-03-24T15:17:21.935Z,98165.31256889757
2023-03-24T15:21:23.480Z,98161.20705772996
2023-03-24T15:24:31.364Z,98162.2924041238
2023-03-24T15:27:21.525Z,98164.37914288277
2023-03-24T15:31:15.631Z,98169.59721261082
2023-03-24T15:34:27.083Z,98161.83576702014
2023-03-24T15:37:22.111Z,98158.77280098418
2023-03-24T15:41:19.589Z,98164.44403203425
2023-03-24T15:44:19.034Z,98164.53934313387
2023-03-24T15:47:21.256Z,98163.90809718553
2023-03-24T15:51:16.112Z,98160.38812185344
2023-03-24T15:54:23.557Z,98160.20582929309
2023-03-24T15:57:19.063Z,98159.80864820984
2023-03-24T16:01:20.215Z,98152.1826633167
2023-03-24T16:04:18.591Z,98160.07555824828
2023-03-24T16:07:24.184Z,98160.3153185722
2023-03-24T16:11:16.864Z,98162.65487902486
2023-03-24T16:14:21.796Z,98164.11125265791
2023-03-24T16:17:16.392Z,98168.08941428467
2023-03-24T16:21:18.141Z,98179.05223214578
2023-03-24T16:24:16.524Z,98179.40477369305
2023-03-24T16:27:16.542Z,98189.50964669719
2023-03-24T16:31:22.891Z,98182.85555317036
2023-03-24T16:34:21.240Z,98179.44883928013
2023-03-24T16:37:16.857Z,98180.38500808856
2023-03-24T16:41:16.179Z,98191.96688932789
2023-03-24T16:44:17.549Z,98194.14279020244
2023-03-24T16:47:16.395Z,98189.6801992422
2023-03-24T16:51:16.393Z,98202.0136632454
2023-03-24T16:54:16.184Z,98209.52514547472
2023-03-24T16:57:16.537Z,98213.90014017459
2023-03-24T17:01:29.078Z,98220.27167307324
2023-03-24T17:04:18.593Z,98220.93012578845
2023-03-24T17:07:16.453Z,98225.51317409132
2023-03-24T17:11:24.488Z,98232.88861988645
2023-03-24T17:14:17.939Z,98231.01219294858
2023-03-24T17:17:17.205Z,98227.96709046832
2023-03-24T17:21:17.634Z,98231.65990826796
2023-03-24T17:24:16.699Z,98233.46247997055
2023-03-24T17:27:17.868Z,98242.41364790437
2023-03-24T17:31:16.781Z,98248.02127851878
2023-03-24T17:34:21.535Z,98252.19057641167
2023-03-24T17:37:16.837Z,98252.20530944545
2023-03-24T17:41:16.658Z,98254.08165436388
2023-03-24T17:44:17.149Z,98243.03875112385
2023-03-24T17:47:17.502Z,98247.64200215087
2023-03-24T17:51:16.785Z,98251.01344404396
2023-03-24T17:54:16.873Z,98254.21644574023
2023-03-24T17:57:16.995Z,98255.93642228539
2023-03-24T18:01:18.299Z,98264.420378274
2023-03-24T18:04:17.458Z,98264.65860782583
2023-03-24T18:07:16.710Z,98266.47700228187
2023-03-24T18:11:16.725Z,98269.3710129842
2023-03-24T18:14:16.900Z,98270.54997147604
2023-03-24T18:17:17.273Z,98276.10418526904
2023-03-24T18:21:15.881Z,98285.0635259829
2023-03-24T18:24:16.224Z,98290.75342437475
2023-03-24T18:27:16.230Z,98289.10904102592
2023-03-24T18:31:19.006Z,98295.38716661086
2023-03-24T18:34:16.986Z,98302.83976290358
2023-03-24T18:37:16.780Z,98310.22945812033
2023-03-24T18:41:16.883Z,98308.91082617042
2023-03-24T18:44:16.531Z,98319.93081433432
2023-03-24T18:47:18.216Z,98315.35099685715
2023-03-24T18:51:16.221Z,98320.2427613736
2023-03-24T18:54:16.872Z,98313.37453149495
2023-03-24T18:57:17.079Z,98315.93992281679
2023-03-24T19:01:18.155Z,98325.27160062379
2023-03-24T19:04:17.295Z,98327.21617617682
2023-03-24T19:07:24.732Z,98323.2257428723
2023-03-24T19:11:17.147Z,98323.45029137374
2023-03-24T19:14:17.230Z,98328.1301641262
2023-03-24T19:17:17.149Z,98328.81864249213
2023-03-24T19:21:17.872Z,98319.45434205806
2023-03-24T19:24:16.548Z,98324.51269253693
2023-03-24T19:27:16.573Z,98333.1603442937
2023-03-24T19:31:19.354Z,98331.88549907046
2023-03-24T19:34:18.093Z,98327.20291738717
2023-03-24T19:37:17.818Z,98335.31428969072
2023-03-24T19:41:16.177Z,98337.30574756296
2023-03-24T19:44:16.452Z,98336.91250952442
2023-03-24T19:47:16.514Z,98337.30070480877
2023-03-24T19:51:16.626Z,98340.77412898075
2023-03-24T19:54:16.916Z,98343.4553063027
2023-03-24T19:57:17.505Z,98348.19530912946
2023-03-24T20:01:16.529Z,98354.86145259878
2023-03-24T20:04:17.113Z,98364.0961888248
2023-03-24T20:07:17.276Z,98360.48504901583
2023-03-24T20:11:16.502Z,98348.52175198452
2023-03-24T20:14:17.300Z,98351.50505778423
2023-03-24T20:17:19.188Z,98345.24071461665
2023-03-24T20:21:20.970Z,98330.68252602287
2023-03-24T20:24:17.371Z,98328.57108076173
2023-03-24T20:27:16.853Z,98325.40560740021
2023-03-24T20:31:16.847Z,98310.99313957205
2023-03-24T20:34:18.153Z,98304.12893244883
2023-03-24T20:37:17.876Z,98307.63725873198
2023-03-24T20:41:19.893Z,98296.67856443235
2023-03-24T20:44:17.532Z,98284.22264796073
2023-03-24T20:47:17.924Z,98281.01384115011
2023-03-24T20:51:17.140Z,98281.90235981342
2023-03-24T20:54:18.791Z,98275.76870479767
2023-03-24T20:57:18.403Z,98276.57838459837
2023-03-24T21:01:21.841Z,98274.40240821082
2023-03-24T21:04:17.647Z,98281.87882993363
2023-03-24T21:07:19.170Z,98272.88833966621
2023-03-24T21:11:16.799Z,98260.61216725911
2023-03-24T21:14:18.052Z,98262.09854708597
2023-03-24T21:17:20.941Z,98256.20180412878
2023-03-24T21:21:16.161Z,98250.14619292026
2023-03-24T21:24:17.466Z,98244.27722835692
2023-03-24T21:27:17.686Z,98243.70186121762
2023-03-24T21:31:18.820Z,98253.11738453069
2023-03-24T21:34:16.665Z,98234.29943414903
2023-03-24T21:37:19.881Z,98243.87637719006
2023-03-24T21:41:18.007Z,98243.91566306989
2023-03-24T21:44:19.305Z,98241.65262080292
2023-03-24T21:47:19.536Z,98238.4010811114
2023-03-24T21:51:21.231Z,98246.9030155191
2023-03-24T21:54:16.562Z,98246.34985674205
2023-03-24T21:57:17.814Z,98253.19556671607
2023-03-24T22:01:16.221Z,98246.98123683932
2023-03-24T22:04:18.120Z,98240.62395345427
2023-03-24T22:07:18.870Z,98242.10138229301
2023-03-24T22:11:18.956Z,98226.38326017188
2023-03-24T22:14:19.318Z,98223.3815000233
2023-03-24T22:17:16.791Z,98213.72853270544
2023-03-24T22:21:16.368Z,98213.93091611414
2023-03-24T22:24:16.855Z,98216.68835982269
2023-03-24T22:27:18.325Z,98208.72688073012
2023-03-24T22:31:17.349Z,98198.08550378087
2023-03-24T22:34:17.315Z,98203.73679584969
2023-03-24T22:37:17.112Z,98200.20259860385
2023-03-24T22:41:16.491Z,98198.58547646472
2023-03-24T22:44:17.260Z,98207.57920467028
2023-03-24T22:47:16.713Z,98219.13817303994
2023-03-24T22:51:19.710Z,98227.03351701189
2023-03-24T22:54:16.749Z,98224.84692846374
2023-03-24T22:57:18.112Z,98208.4396370512
2023-03-24T23:01:18.520Z,98210.22337786017
2023-03-24T23:04:17.106Z,98224.68560999382
2023-03-24T23:07:17.692Z,98228.29068641503
2023-03-24T23:11:16.242Z,98230.37575444364
2023-03-24T23:14:18.537Z,98231.64044650868
2023-03-24T23:17:16.639Z,98225.74262703845
2023-03-24T23:21:17.053Z,98234.49271322954
2023-03-24T23:24:16.658Z,98233.53917051337
2023-03-24T23:27:16.406Z,98232.18591204545
2023-03-24T23:31:18.463Z,98228.97973468297
2023-03-24T23:34:17.185Z,98230.17405198823
2023-03-24T23:37:18.506Z,98223.00486206448
2023-03-24T23:41:17.996Z,98216.9608246798
2023-03-24T23:44:19.702Z,98216.83356707105
2023-03-24T23:47:16.752Z,98211.29770540414
2023-03-24T23:51:16.692Z,98203.60959505393
2023-03-24T23:54:17.687Z,98211.9141915381
2023-03-24T23:57:17.367Z,98208.42847643916
